DLH225 EHAM-EDDM
Flight info
| Callsign | DLH225 |
|---|---|
| Flight time | N/A |
| Altitude | 33000 |
| Route | EDUPO Z739 MISGO DCT DOJOH DCT DODEN DCT TABUM DCT BOMBI T104 HAREM/N0495F270 T104 ROKIL ROKIL1A |
| Aircraft | B742/H-SDFHIRWXY/L |
Departure
| Time | 2026-04-29 19:08 |
|---|---|
| Airport | Amsterdam Airport Schiphol (EHAM) |
Arrival
| Time | N/A |
|---|---|
| Airport | Munich Airport (EDDM) |
| Time | Latitude | Longitude | Altitude | Speed | Heading |
|---|---|---|---|---|---|
| 2026-04-29 18:18 | 52.31339 | 4.75312 | 1 ft | 0 kts | 267° |
| 2026-04-29 18:57 | 52.31338 | 4.75340 | 1 ft | 2 kts | 280° |
| 2026-04-29 18:57 | 52.31335 | 4.75363 | 1 ft | 2 kts | 290° |
| 2026-04-29 18:57 | 52.31329 | 4.75385 | 1 ft | 2 kts | 300° |
| 2026-04-29 18:58 | 52.31321 | 4.75405 | 1 ft | 2 kts | 310° |
| 2026-04-29 18:58 | 52.31310 | 4.75422 | 1 ft | 2 kts | 320° |
| 2026-04-29 18:58 | 52.31298 | 4.75436 | 1 ft | 2 kts | 330° |
| 2026-04-29 18:58 | 52.31285 | 4.75446 | 1 ft | 2 kts | 341° |
| 2026-04-29 18:59 | 52.31271 | 4.75452 | 1 ft | 2 kts | 351° |
| 2026-04-29 18:59 | 52.31257 | 4.75454 | 1 ft | 1 kts | 358° |
| 2026-04-29 18:59 | 52.31262 | 4.75454 | 1 ft | 3 kts | 356° |
| 2026-04-29 18:59 | 52.31306 | 4.75449 | 1 ft | 6 kts | 357° |
| 2026-04-29 19:00 | 52.31335 | 4.75447 | 1 ft | 1 kts | 357° |
| 2026-04-29 19:00 | 52.31337 | 4.75446 | 1 ft | 0 kts | 357° |
| 2026-04-29 19:02 | 52.31356 | 4.75445 | 1 ft | 5 kts | 357° |
| 2026-04-29 19:02 | 52.31399 | 4.75437 | 1 ft | 5 kts | 341° |
| 2026-04-29 19:03 | 52.31418 | 4.75409 | 1 ft | 2 kts | 297° |
| 2026-04-29 19:03 | 52.31421 | 4.75374 | 1 ft | 4 kts | 269° |
| 2026-04-29 19:03 | 52.31419 | 4.75292 | 1 ft | 9 kts | 268° |
| 2026-04-29 19:03 | 52.31416 | 4.75153 | 1 ft | 15 kts | 267° |
| 2026-04-29 19:04 | 52.31410 | 4.74950 | 1 ft | 19 kts | 267° |
| 2026-04-29 19:04 | 52.31404 | 4.74744 | 1 ft | 11 kts | 268° |
| 2026-04-29 19:04 | 52.31413 | 4.74684 | 1 ft | 3 kts | 311° |
| 2026-04-29 19:04 | 52.31428 | 4.74664 | 0 ft | 1 kts | 330° |
| 2026-04-29 19:05 | 52.31451 | 4.74661 | 1 ft | 8 kts | 357° |
| 2026-04-29 19:05 | 52.31546 | 4.74654 | 1 ft | 15 kts | 358° |
| 2026-04-29 19:05 | 52.31642 | 4.74679 | 1 ft | 10 kts | 35° |
| 2026-04-29 19:05 | 52.31668 | 4.74769 | 1 ft | 0 kts | 86° |
| 2026-04-29 19:06 | 52.31669 | 4.74769 | 1 ft | 0 kts | 86° |
| 2026-04-29 19:07 | 52.31669 | 4.74773 | 1 ft | 3 kts | 86° |
| 2026-04-29 19:07 | 52.31674 | 4.74927 | 1 ft | 43 kts | 87° |
| 2026-04-29 19:07 | 52.31725 | 4.76277 | 2 ft | 131 kts | 88° |
| 2026-04-29 19:07 | 52.31765 | 4.77926 | 360 ft | 151 kts | 85° |
| 2026-04-29 19:08 | 52.31830 | 4.79673 | 878 ft | 165 kts | 90° |
| 2026-04-29 19:08 | 52.31885 | 4.81659 | 1395 ft | 186 kts | 86° |
| 2026-04-29 19:08 | 52.31965 | 4.83841 | 2156 ft | 198 kts | 88° |
| 2026-04-29 19:08 | 52.32039 | 4.86098 | 2995 ft | 206 kts | 92° |
| 2026-04-29 19:09 | 52.31665 | 4.88289 | 3729 ft | 205 kts | 111° |
| 2026-04-29 19:09 | 52.31082 | 4.90454 | 4194 ft | 211 kts | 111° |
| 2026-04-29 19:09 | 52.30488 | 4.92689 | 4632 ft | 218 kts | 111° |
| 2026-04-29 19:09 | 52.29881 | 4.94988 | 5101 ft | 227 kts | 110° |
| 2026-04-29 19:10 | 52.29325 | 4.97473 | 5509 ft | 240 kts | 104° |
| 2026-04-29 19:10 | 52.28863 | 5.00154 | 6009 ft | 253 kts | 103° |
| 2026-04-29 19:10 | 52.28386 | 5.02940 | 6581 ft | 263 kts | 103° |
| 2026-04-29 19:10 | 52.27884 | 5.05853 | 7197 ft | 272 kts | 104° |
| 2026-04-29 19:11 | 52.27365 | 5.08838 | 7865 ft | 279 kts | 103° |
| 2026-04-29 19:11 | 52.26829 | 5.11914 | 8539 ft | 285 kts | 103° |
| 2026-04-29 19:11 | 52.26282 | 5.15046 | 9236 ft | 290 kts | 103° |
| 2026-04-29 19:11 | 52.25731 | 5.18204 | 9955 ft | 294 kts | 103° |
| 2026-04-29 19:12 | 52.25175 | 5.21379 | 10659 ft | 297 kts | 103° |
| 2026-04-29 19:12 | 52.24599 | 5.24605 | 11367 ft | 300 kts | 105° |
| 2026-04-29 19:12 | 52.23644 | 5.27647 | 12047 ft | 307 kts | 119° |
| 2026-04-29 19:12 | 52.22838 | 5.29570 | 12493 ft | 308 kts | 118° |
| 2026-04-29 19:13 | 52.21757 | 5.33753 | 13366 ft | 303 kts | 102° |
| 2026-04-29 19:13 | 52.21169 | 5.37080 | 14004 ft | 306 kts | 105° |
| 2026-04-29 19:13 | 52.20271 | 5.40236 | 14578 ft | 314 kts | 115° |
| 2026-04-29 19:13 | 52.19050 | 5.43226 | 15135 ft | 320 kts | 122° |
| 2026-04-29 19:14 | 52.17664 | 5.46088 | 15754 ft | 323 kts | 124° |
| 2026-04-29 19:14 | 52.16223 | 5.48875 | 16283 ft | 327 kts | 125° |
| 2026-04-29 19:14 | 52.14750 | 5.51663 | 16841 ft | 329 kts | 125° |
| 2026-04-29 19:14 | 52.13246 | 5.54493 | 17389 ft | 331 kts | 125° |
| 2026-04-29 19:15 | 52.11736 | 5.57333 | 17816 ft | 337 kts | 125° |
| 2026-04-29 19:15 | 52.10189 | 5.60242 | 18276 ft | 342 kts | 125° |
| 2026-04-29 19:15 | 52.08623 | 5.63181 | 18742 ft | 348 kts | 125° |
| 2026-04-29 19:15 | 52.07036 | 5.66153 | 19181 ft | 354 kts | 127° |
| 2026-04-29 19:16 | 52.05392 | 5.69173 | 19638 ft | 360 kts | 127° |
| 2026-04-29 19:16 | 52.03730 | 5.72230 | 20084 ft | 365 kts | 127° |
| 2026-04-29 19:16 | 52.02048 | 5.75343 | 20568 ft | 371 kts | 126° |
| 2026-04-29 19:16 | 52.00345 | 5.78507 | 21038 ft | 377 kts | 126° |
| 2026-04-29 19:17 | 51.98625 | 5.81705 | 21573 ft | 380 kts | 126° |
| 2026-04-29 19:17 | 51.96878 | 5.84951 | 22147 ft | 382 kts | 126° |
| 2026-04-29 19:17 | 51.95143 | 5.88172 | 22705 ft | 385 kts | 126° |
| 2026-04-29 19:17 | 51.93370 | 5.91464 | 23225 ft | 388 kts | 126° |
| 2026-04-29 19:18 | 51.91612 | 5.94723 | 23759 ft | 390 kts | 126° |
| 2026-04-29 19:18 | 51.90424 | 5.96922 | 24070 ft | 393 kts | 126° |
| 2026-04-29 19:18 | 51.88006 | 6.01396 | 24648 ft | 399 kts | 126° |
| 2026-04-29 19:18 | 51.86168 | 6.04798 | 25047 ft | 404 kts | 126° |
| 2026-04-29 19:19 | 51.84306 | 6.08214 | 25370 ft | 412 kts | 128° |
| 2026-04-29 19:19 | 51.82070 | 6.11266 | 25685 ft | 428 kts | 141° |
| 2026-04-29 19:19 | 51.79410 | 6.13509 | 26039 ft | 441 kts | 150° |
| 2026-04-29 19:19 | 51.76555 | 6.15465 | 26531 ft | 444 kts | 152° |
| 2026-04-29 19:20 | 51.73714 | 6.17371 | 27036 ft | 446 kts | 152° |
| 2026-04-29 19:20 | 51.70838 | 6.19334 | 27531 ft | 448 kts | 151° |
| 2026-04-29 19:20 | 51.67980 | 6.21327 | 27957 ft | 451 kts | 150° |
| 2026-04-29 19:20 | 51.65136 | 6.23371 | 28443 ft | 452 kts | 149° |
| 2026-04-29 19:21 | 51.62270 | 6.25486 | 28852 ft | 455 kts | 149° |
| 2026-04-29 19:21 | 51.59387 | 6.27656 | 29242 ft | 458 kts | 149° |
| 2026-04-29 19:21 | 51.56527 | 6.29823 | 29639 ft | 461 kts | 148° |
| 2026-04-29 19:21 | 51.53610 | 6.32035 | 30025 ft | 464 kts | 149° |
| 2026-04-29 19:22 | 51.50703 | 6.34238 | 30427 ft | 466 kts | 148° |
| 2026-04-29 19:22 | 51.47792 | 6.36461 | 30818 ft | 467 kts | 147° |
| 2026-04-29 19:22 | 51.44969 | 6.39023 | 31152 ft | 464 kts | 140° |
| 2026-04-29 19:22 | 51.42369 | 6.42083 | 31515 ft | 461 kts | 134° |